Time;durP1;ratioP1;P1;durP2;ratioP2;P2;SDS_P1;SDS_P2;PMS_P1;PMS_P2;Temp;Humidity;BMP_temperature;BMP_pressure;BME280_temperature;BME280_humidity;BME280_pressure;Samples;Min_cycle;Max_cycle;Signal;HPM_P1;HPM_P2
2021/06/06 00:01:41;;;;;;;7.65;5.75;;;22.10;60.60;;;;;;5072820;28;20124;-66
2021/06/06 00:04:17;;;;;;;5.32;4.78;;;22.00;60.70;;;;;;5080837;28;20495;-66
2021/06/06 00:06:43;;;;;;;8.15;5.28;;;21.90;60.90;;;;;;5070101;28;20037;-65
2021/06/06 00:09:14;;;;;;;8.43;5.43;;;22.10;60.60;;;;;;5081219;28;20054;-65
2021/06/06 00:11:43;;;;;;;9.90;5.28;;;22.00;61.00;;;;;;5078203;28;20047;-65
2021/06/06 00:14:13;;;;;;;10.77;5.72;;;22.00;61.20;;;;;;5074840;28;20115;-65
2021/06/06 00:16:43;;;;;;;12.25;5.40;;;22.00;61.10;;;;;;5078720;28;20445;-65
2021/06/06 00:19:10;;;;;;;11.90;5.55;;;21.80;61.50;;;;;;5074204;28;20094;-65
2021/06/06 00:21:37;;;;;;;15.40;6.10;;;21.90;61.30;;;;;;5052505;28;20540;-65
2021/06/06 00:24:08;;;;;;;10.52;5.57;;;21.90;61.60;;;;;;5080454;28;20040;-65
2021/06/06 00:26:34;;;;;;;14.13;5.53;;;21.90;62.20;;;;;;5075461;28;20040;-65
2021/06/06 00:29:00;;;;;;;11.52;5.72;;;21.80;61.30;;;;;;5081596;28;20051;-65
2021/06/06 00:31:26;;;;;;;7.18;5.93;;;21.90;61.20;;;;;;5065216;28;20037;-65
2021/06/06 00:33:52;;;;;;;6.55;5.40;;;21.90;61.30;;;;;;5083513;28;20040;-64
2021/06/06 00:36:19;;;;;;;9.32;5.82;;;21.80;61.30;;;;;;5074474;28;20492;-64
2021/06/06 00:38:45;;;;;;;10.40;6.20;;;21.90;61.90;;;;;;5082970;28;20047;-64
2021/06/06 00:41:12;;;;;;;7.68;6.18;;;21.90;61.30;;;;;;5073022;28;20040;-64
2021/06/06 00:43:38;;;;;;;11.07;6.38;;;21.80;61.70;;;;;;5086320;28;20036;-65
2021/06/06 00:46:04;;;;;;;9.73;6.32;;;21.80;61.50;;;;;;5073282;28;20412;-65
2021/06/06 00:48:30;;;;;;;10.32;6.43;;;21.80;61.60;;;;;;5078593;28;20122;-64
2021/06/06 00:51:00;;;;;;;7.57;6.28;;;21.80;61.60;;;;;;5083076;28;20115;-64
2021/06/06 00:53:37;;;;;;;8.20;5.88;;;21.90;62.10;;;;;;5074314;28;20558;-65
2021/06/06 00:56:06;;;;;;;10.73;6.78;;;21.80;61.60;;;;;;5078156;28;20627;-65
2021/06/06 00:58:31;;;;;;;10.40;7.22;;;21.80;62.10;;;;;;5074506;28;20048;-65
2021/06/06 01:01:01;;;;;;;9.63;6.05;;;21.80;62.50;;;;;;5083950;28;20066;-64
2021/06/06 01:03:27;;;;;;;6.63;5.88;;;21.80;62.20;;;;;;5079123;28;20040;-65
2021/06/06 01:06:07;;;;;;;11.30;6.93;;;21.80;62.40;;;;;;5080796;28;20493;-65
2021/06/06 01:08:33;;;;;;;11.18;6.82;;;21.80;63.40;;;;;;5076606;28;20496;-64
2021/06/06 01:11:26;;;;;;;9.90;7.00;;;21.70;63.00;;;;;;5082608;28;20052;-65
2021/06/06 01:13:59;;;;;;;13.85;7.18;;;21.70;63.90;;;;;;5038924;28;20101;-64
2021/06/06 01:16:31;;;;;;;11.30;7.75;;;21.70;63.10;;;;;;5066448;28;20497;-65
2021/06/06 01:18:59;;;;;;;10.70;6.55;;;21.70;62.90;;;;;;5067498;28;20509;-65
2021/06/06 01:21:57;;;;;;;10.05;6.50;;;21.70;62.80;;;;;;5081290;28;20086;-65
2021/06/06 01:24:31;;;;;;;11.25;6.90;;;21.70;63.70;;;;;;5016897;28;20036;-65
2021/06/06 01:27:00;;;;;;;9.82;5.60;;;21.70;62.40;;;;;;5047780;28;20033;-65
2021/06/06 01:29:44;;;;;;;7.75;6.18;;;21.60;62.00;;;;;;5062439;28;20024;-65
2021/06/06 01:32:35;;;;;;;9.65;5.20;;;21.60;62.10;;;;;;5061074;28;20103;-65
2021/06/06 01:35:11;;;;;;;6.45;5.10;;;21.50;60.80;;;;;;5031011;28;20039;-65
2021/06/06 01:37:48;;;;;;;6.03;4.78;;;21.40;60.30;;;;;;5069164;28;20497;-64
2021/06/06 01:40:25;;;;;;;6.50;4.40;;;21.40;59.80;;;;;;5067773;28;20063;-64
2021/06/06 01:42:55;;;;;;;7.30;3.88;;;21.50;59.40;;;;;;5069034;28;20040;-64
2021/06/06 01:45:32;;;;;;;6.63;3.90;;;21.40;58.80;;;;;;5076586;28;20080;-65
2021/06/06 01:48:03;;;;;;;5.00;3.63;;;21.50;58.60;;;;;;5076797;28;20036;-65
2021/06/06 01:50:34;;;;;;;6.88;3.63;;;21.40;57.80;;;;;;5071767;28;20436;-65
2021/06/06 01:53:03;;;;;;;4.47;3.58;;;21.40;57.60;;;;;;5076640;28;20036;-65
2021/06/06 01:55:31;;;;;;;5.13;3.10;;;21.40;57.50;;;;;;5071329;28;20048;-65
2021/06/06 01:58:01;;;;;;;6.00;3.33;;;21.40;57.60;;;;;;5070207;28;20440;-65
2021/06/06 02:00:36;;;;;;;7.05;2.78;;;21.40;57.10;;;;;;5071954;28;20121;-64
2021/06/06 02:03:03;;;;;;;7.32;3.08;;;21.30;55.70;;;;;;5062878;28;20044;-64
2021/06/06 02:05:30;;;;;;;2.58;2.38;;;21.30;55.70;;;;;;5073736;28;20123;-66
2021/06/06 02:07:57;;;;;;;3.03;2.30;;;21.20;55.60;;;;;;5069371;28;20049;-65
2021/06/06 02:10:26;;;;;;;5.05;2.00;;;21.10;55.20;;;;;;5062192;28;20138;-65
2021/06/06 02:13:04;;;;;;;4.38;2.90;;;21.10;54.50;;;;;;5061093;28;20498;-65
2021/06/06 02:15:32;;;;;;;2.85;2.65;;;20.90;55.40;;;;;;5064790;28;20036;-65
2021/06/06 02:17:59;;;;;;;4.03;2.40;;;21.00;55.50;;;;;;5066341;28;20453;-65
2021/06/06 02:20:29;;;;;;;4.40;2.70;;;21.00;55.40;;;;;;5060091;28;20053;-65
2021/06/06 02:22:57;;;;;;;3.83;2.72;;;21.10;55.40;;;;;;5059302;28;20032;-65
2021/06/06 02:25:24;;;;;;;4.00;2.50;;;21.10;55.20;;;;;;5066047;28;20093;-65
2021/06/06 02:28:06;;;;;;;2.63;2.40;;;20.90;55.20;;;;;;5057052;28;20043;-65
2021/06/06 02:30:42;;;;;;;2.83;2.15;;;21.00;55.20;;;;;;5066367;28;20044;-65
2021/06/06 02:33:18;;;;;;;2.45;2.22;;;21.00;55.30;;;;;;5065395;28;20422;-65
2021/06/06 02:35:50;;;;;;;3.65;2.08;;;20.90;55.30;;;;;;5062745;28;20048;-64
2021/06/06 02:38:37;;;;;;;2.75;2.20;;;20.80;55.00;;;;;;5057339;28;20045;-65
2021/06/06 02:41:12;;;;;;;3.03;2.00;;;20.90;55.00;;;;;;5061606;28;20046;-65
2021/06/06 02:44:05;;;;;;;4.88;2.10;;;20.80;54.90;;;;;;5061759;28;20159;-65
2021/06/06 02:46:33;;;;;;;2.55;1.80;;;20.80;54.70;;;;;;5036264;28;20040;-65
2021/06/06 02:49:03;;;;;;;2.08;1.67;;;20.80;54.90;;;;;;5080927;28;20032;-65
2021/06/06 02:51:29;;;;;;;3.53;2.20;;;20.90;54.60;;;;;;5052578;28;20044;-65
2021/06/06 02:54:05;;;;;;;1.75;1.65;;;20.80;54.30;;;;;;5059880;28;20051;-64
2021/06/06 02:56:35;;;;;;;2.85;1.77;;;20.80;54.60;;;;;;5063780;28;20134;-65
2021/06/06 02:59:06;;;;;;;2.65;1.83;;;20.70;54.40;;;;;;5067295;28;20041;-64
2021/06/06 03:01:35;;;;;;;1.50;1.40;;;20.70;54.30;;;;;;5062105;28;20040;-65
2021/06/06 03:04:05;;;;;;;1.52;1.40;;;20.80;54.40;;;;;;5065622;28;20048;-65
2021/06/06 03:06:36;;;;;;;3.13;1.75;;;20.70;54.00;;;;;;5056112;28;20060;-65
2021/06/06 03:09:04;;;;;;;2.55;1.88;;;20.70;54.20;;;;;;5057100;28;20041;-65
2021/06/06 03:11:30;;;;;;;6.47;2.35;;;20.70;54.30;;;;;;5057007;28;20413;-65
2021/06/06 03:14:03;;;;;;;3.03;2.58;;;20.80;53.90;;;;;;5052202;28;20037;-64
2021/06/06 03:16:32;;;;;;;1.80;1.55;;;20.70;54.00;;;;;;5061351;28;20178;-64
2021/06/06 03:19:00;;;;;;;2.10;1.70;;;20.60;53.60;;;;;;5073764;28;20058;-64
2021/06/06 03:21:34;;;;;;;2.97;1.70;;;20.60;53.70;;;;;;5060752;28;20051;-64
2021/06/06 03:24:15;;;;;;;2.90;1.55;;;20.70;54.00;;;;;;5061183;28;20032;-65
2021/06/06 03:26:43;;;;;;;2.53;1.63;;;20.60;53.90;;;;;;5064713;28;20505;-64
2021/06/06 03:29:12;;;;;;;1.88;1.77;;;20.60;53.50;;;;;;5074094;28;20347;-64
2021/06/06 03:31:55;;;;;;;5.72;1.70;;;20.60;53.70;;;;;;5064891;28;20087;-64
2021/06/06 03:34:21;;;;;;;1.23;1.13;;;20.70;54.30;;;;;;5020544;28;20486;-64
2021/06/06 03:36:48;;;;;;;1.50;1.40;;;20.60;54.00;;;;;;5060267;28;20066;-64
2021/06/06 03:39:17;;;;;;;1.40;1.30;;;20.60;53.80;;;;;;5072617;28;20048;-64
2021/06/06 03:41:45;;;;;;;1.92;1.52;;;20.60;53.90;;;;;;5078577;28;20063;-64
2021/06/06 03:44:11;;;;;;;2.10;1.80;;;20.50;54.00;;;;;;5066324;28;20068;-64
2021/06/06 03:46:38;;;;;;;3.55;1.42;;;20.50;53.70;;;;;;5071936;28;20079;-64
2021/06/06 03:49:08;;;;;;;3.25;1.50;;;20.60;53.60;;;;;;5058264;28;20084;-64
2021/06/06 03:51:34;;;;;;;1.80;1.58;;;20.60;54.10;;;;;;5064382;28;20505;-64
2021/06/06 03:54:00;;;;;;;1.60;1.45;;;20.50;54.10;;;;;;5066718;28;20032;-64
2021/06/06 03:56:26;;;;;;;2.83;1.80;;;20.50;54.10;;;;;;5059969;28;20043;-64
2021/06/06 03:58:53;;;;;;;2.35;1.90;;;20.50;54.00;;;;;;5063581;28;20044;-64
2021/06/06 04:01:19;;;;;;;2.75;1.73;;;20.50;54.00;;;;;;5065839;28;20088;-64
2021/06/06 04:03:45;;;;;;;1.80;1.70;;;20.50;54.20;;;;;;5062500;28;20056;-63
2021/06/06 04:06:10;;;;;;;4.55;1.77;;;20.50;54.20;;;;;;5074197;28;20040;-64
2021/06/06 04:08:36;;;;;;;1.85;1.70;;;20.50;54.30;;;;;;5060166;28;20358;-65
2021/06/06 04:11:02;;;;;;;4.10;1.67;;;20.40;54.40;;;;;;5063023;28;20029;-64
2021/06/06 04:13:29;;;;;;;3.38;1.73;;;20.50;54.40;;;;;;5074275;28;20054;-64
2021/06/06 04:15:54;;;;;;;3.30;1.75;;;20.50;54.70;;;;;;5069923;28;20486;-64
2021/06/06 04:18:25;;;;;;;3.17;1.67;;;20.50;54.70;;;;;;5069515;28;20042;-64
2021/06/06 04:20:53;;;;;;;4.40;1.85;;;20.50;54.50;;;;;;5068323;28;20134;-64
2021/06/06 04:23:20;;;;;;;4.28;1.98;;;20.50;54.70;;;;;;5078968;28;20028;-64
2021/06/06 04:25:46;;;;;;;1.73;1.48;;;20.50;54.80;;;;;;5061484;28;20037;-64
2021/06/06 04:28:12;;;;;;;2.83;1.65;;;20.60;54.80;;;;;;5067581;28;20547;-64
2021/06/06 04:30:38;;;;;;;2.55;1.60;;;20.60;54.70;;;;;;5078246;28;20032;-64
2021/06/06 04:33:07;;;;;;;2.75;1.65;;;20.60;55.00;;;;;;5071918;28;20535;-64
2021/06/06 04:35:41;;;;;;;2.80;2.05;;;20.50;55.00;;;;;;5066398;28;20136;-64
2021/06/06 04:38:08;;;;;;;2.03;1.90;;;20.50;55.60;;;;;;5082059;28;20040;-64
2021/06/06 04:40:34;;;;;;;3.25;2.10;;;20.60;55.30;;;;;;5079624;28;20047;-64
2021/06/06 04:43:01;;;;;;;2.65;1.92;;;20.50;55.30;;;;;;5083347;28;20041;-64
2021/06/06 04:45:27;;;;;;;2.40;2.10;;;20.50;55.40;;;;;;5072887;28;20044;-64
2021/06/06 04:47:53;;;;;;;2.40;2.05;;;20.50;55.20;;;;;;5081811;28;20054;-64
2021/06/06 04:50:20;;;;;;;2.33;2.00;;;20.60;55.30;;;;;;5064779;28;20032;-64
2021/06/06 04:52:46;;;;;;;3.33;2.00;;;20.50;55.40;;;;;;5056859;28;20421;-64
2021/06/06 04:55:15;;;;;;;4.03;2.28;;;20.50;55.20;;;;;;5071510;28;20044;-64
2021/06/06 04:57:42;;;;;;;2.75;2.20;;;20.50;55.30;;;;;;5065287;28;20056;-64
2021/06/06 05:00:19;;;;;;;1.63;1.52;;;20.50;55.10;;;;;;5048216;28;20506;-64
2021/06/06 05:02:44;;;;;;;4.97;1.98;;;20.60;55.10;;;;;;5069105;28;20435;-63
2021/06/06 05:05:11;;;;;;;4.38;2.45;;;20.50;55.00;;;;;;5073935;28;20123;-64
2021/06/06 05:07:36;;;;;;;4.18;2.20;;;20.50;55.00;;;;;;5074113;28;20040;-64
2021/06/06 05:10:08;;;;;;;2.70;2.30;;;20.50;54.90;;;;;;5070960;28;20351;-64
2021/06/06 05:12:34;;;;;;;3.25;2.30;;;20.50;55.20;;;;;;5080030;28;20462;-64
2021/06/06 05:15:00;;;;;;;3.70;2.10;;;20.70;55.10;;;;;;5083150;28;20058;-64
2021/06/06 05:17:25;;;;;;;2.65;2.22;;;20.70;55.10;;;;;;5060573;28;20083;-64
2021/06/06 05:19:51;;;;;;;3.20;2.35;;;20.70;55.10;;;;;;5060242;28;20060;-64
2021/06/06 05:22:17;;;;;;;3.00;2.10;;;20.70;55.00;;;;;;5070224;28;20044;-64
2021/06/06 05:24:43;;;;;;;3.70;2.42;;;20.80;55.00;;;;;;5073098;28;20040;-64
2021/06/06 05:27:08;;;;;;;5.85;2.58;;;20.80;55.20;;;;;;5073581;28;20948;-64
2021/06/06 05:29:34;;;;;;;6.63;2.63;;;20.80;55.20;;;;;;5056131;28;20044;-64
2021/06/06 05:32:00;;;;;;;6.85;2.70;;;20.90;55.20;;;;;;5076866;28;20104;-64
2021/06/06 05:34:26;;;;;;;6.15;3.30;;;20.90;55.00;;;;;;5078217;28;20447;-64
2021/06/06 05:36:52;;;;;;;3.25;1.98;;;20.90;54.90;;;;;;5078947;28;20077;-64
2021/06/06 05:39:17;;;;;;;3.85;2.45;;;21.00;54.90;;;;;;5079144;28;20052;-64
2021/06/06 05:41:43;;;;;;;2.72;2.15;;;21.00;54.30;;;;;;5079114;28;20074;-64
2021/06/06 05:44:09;;;;;;;2.10;1.73;;;21.00;54.50;;;;;;5073675;28;20112;-64
2021/06/06 05:46:36;;;;;;;1.95;1.85;;;21.10;54.20;;;;;;5067664;28;20052;-64
2021/06/06 05:49:03;;;;;;;2.78;1.95;;;21.20;53.70;;;;;;5075286;28;20325;-64
2021/06/06 05:51:29;;;;;;;2.80;2.03;;;21.20;53.60;;;;;;5067696;28;20093;-64
2021/06/06 05:53:55;;;;;;;2.50;1.80;;;21.20;53.50;;;;;;5075059;28;20116;-63
2021/06/06 05:56:21;;;;;;;2.08;1.88;;;21.30;53.60;;;;;;5077049;28;20052;-63
2021/06/06 05:58:48;;;;;;;2.42;2.13;;;21.20;53.40;;;;;;5069433;28;20079;-63
2021/06/06 06:01:14;;;;;;;2.88;2.33;;;21.40;53.40;;;;;;5080123;28;20116;-64
2021/06/06 06:03:39;;;;;;;2.97;2.15;;;21.30;53.10;;;;;;5080041;28;20595;-63
2021/06/06 06:06:06;;;;;;;5.03;2.40;;;21.40;53.10;;;;;;5076824;28;20097;-65
2021/06/06 06:08:37;;;;;;;3.15;2.53;;;21.40;53.00;;;;;;5057815;28;20040;-63
2021/06/06 06:11:05;;;;;;;5.05;2.60;;;21.40;53.70;;;;;;5070293;28;20044;-63
2021/06/06 06:13:32;;;;;;;2.33;1.85;;;21.40;52.90;;;;;;5061523;28;20397;-63
2021/06/06 06:16:00;;;;;;;2.63;1.90;;;21.60;53.10;;;;;;5073474;28;20032;-64
2021/06/06 06:18:28;;;;;;;2.90;2.10;;;21.60;52.90;;;;;;5067593;28;20043;-63
2021/06/06 06:20:55;;;;;;;4.30;2.25;;;21.60;52.90;;;;;;5076685;28;20248;-64
2021/06/06 06:23:21;;;;;;;4.53;2.85;;;21.70;52.80;;;;;;5059687;28;20033;-63
2021/06/06 06:25:47;;;;;;;3.88;2.78;;;21.70;52.70;;;;;;5050009;28;20033;-63
2021/06/06 06:28:13;;;;;;;3.10;2.80;;;21.70;52.70;;;;;;5060251;28;20039;-63
2021/06/06 06:30:40;;;;;;;5.15;3.10;;;21.80;52.50;;;;;;5059448;28;20378;-64
2021/06/06 06:33:07;;;;;;;5.57;2.95;;;21.80;52.20;;;;;;5061947;28;20480;-64
2021/06/06 06:35:34;;;;;;;4.10;2.88;;;21.90;52.20;;;;;;5053654;28;20461;-64
2021/06/06 06:38:01;;;;;;;3.40;2.80;;;22.00;52.30;;;;;;5072890;28;20112;-64
2021/06/06 06:40:27;;;;;;;5.05;2.88;;;22.00;52.30;;;;;;5077279;28;20062;-64
2021/06/06 06:42:55;;;;;;;3.40;3.10;;;22.10;52.00;;;;;;5079879;28;20036;-64
2021/06/06 06:45:27;;;;;;;5.22;2.90;;;22.10;52.00;;;;;;5071078;28;20033;-64
2021/06/06 06:47:58;;;;;;;7.68;2.85;;;22.10;52.50;;;;;;5073347;28;20037;-64
2021/06/06 06:50:24;;;;;;;3.58;2.42;;;22.20;52.60;;;;;;5077016;28;20052;-64
2021/06/06 06:52:50;;;;;;;3.55;3.25;;;22.30;52.40;;;;;;5057411;28;20037;-63
2021/06/06 06:55:19;;;;;;;4.75;3.55;;;22.30;51.90;;;;;;5076136;28;20055;-64
2021/06/06 06:57:45;;;;;;;3.85;3.10;;;22.30;51.90;;;;;;5071839;28;20036;-61
2021/06/06 07:00:16;;;;;;;4.80;3.45;;;22.40;52.20;;;;;;5054316;28;20051;-64
2021/06/06 07:02:42;;;;;;;5.30;3.08;;;22.30;51.60;;;;;;5072716;28;20149;-63
2021/06/06 07:05:08;;;;;;;5.30;3.13;;;22.40;51.40;;;;;;5082527;28;20606;-63
2021/06/06 07:07:34;;;;;;;3.95;3.10;;;22.50;51.10;;;;;;5069891;28;20407;-63
2021/06/06 07:10:01;;;;;;;4.05;3.63;;;22.50;51.00;;;;;;5075276;28;20088;-65
2021/06/06 07:12:26;;;;;;;4.22;3.30;;;22.50;50.70;;;;;;5062941;28;20024;-64
2021/06/06 07:14:52;;;;;;;5.82;3.45;;;22.50;50.80;;;;;;5057621;28;20384;-65
2021/06/06 07:17:18;;;;;;;6.18;3.50;;;22.60;51.10;;;;;;5076371;28;20039;-64
2021/06/06 07:19:44;;;;;;;5.43;3.35;;;22.60;50.90;;;;;;5084606;28;20051;-65
2021/06/06 07:22:09;;;;;;;3.58;3.03;;;22.70;50.50;;;;;;5074412;28;20390;-64
2021/06/06 07:24:36;;;;;;;4.20;3.63;;;22.70;50.60;;;;;;5066336;28;20109;-64
2021/06/06 07:27:02;;;;;;;4.68;3.70;;;22.90;50.00;;;;;;5055441;28;20048;-64
2021/06/06 07:29:30;;;;;;;3.95;3.60;;;22.80;50.30;;;;;;5060653;28;20044;-64
2021/06/06 07:31:57;;;;;;;4.20;3.80;;;22.90;50.30;;;;;;5062291;28;20036;-64
2021/06/06 07:34:25;;;;;;;4.00;3.40;;;22.90;49.60;;;;;;5059087;28;20556;-64
2021/06/06 07:36:53;;;;;;;5.85;3.67;;;22.90;49.80;;;;;;5058892;28;20124;-64
2021/06/06 07:39:18;;;;;;;4.65;2.97;;;23.00;50.10;;;;;;5079852;28;20134;-63
2021/06/06 07:41:44;;;;;;;6.10;3.65;;;23.00;50.00;;;;;;5083066;28;20152;-64
2021/06/06 07:44:10;;;;;;;4.72;3.78;;;23.10;50.00;;;;;;5061124;28;20478;-64
2021/06/06 07:46:36;;;;;;;4.20;3.30;;;23.10;49.80;;;;;;5069869;28;20135;-64
2021/06/06 07:49:03;;;;;;;4.45;4.03;;;23.20;49.60;;;;;;5065913;28;20553;-64
2021/06/06 07:51:29;;;;;;;3.50;3.10;;;23.00;49.00;;;;;;5066888;28;20500;-63
2021/06/06 07:53:55;;;;;;;3.63;3.30;;;23.10;49.20;;;;;;5057333;28;20124;-64
2021/06/06 07:56:22;;;;;;;4.82;2.70;;;23.10;49.00;;;;;;5063099;28;20129;-63
2021/06/06 07:58:48;;;;;;;5.93;2.92;;;23.20;48.90;;;;;;5046246;28;20063;-63
2021/06/06 08:01:13;;;;;;;4.55;3.40;;;23.30;48.40;;;;;;5062507;28;20047;-64
2021/06/06 08:03:39;;;;;;;5.68;3.38;;;23.40;48.10;;;;;;5052739;28;20088;-64
2021/06/06 08:06:07;;;;;;;5.47;3.28;;;23.40;47.70;;;;;;5078467;28;20044;-63
2021/06/06 08:08:33;;;;;;;5.95;3.83;;;23.50;47.60;;;;;;5060709;28;20047;-63
2021/06/06 08:11:01;;;;;;;7.00;3.58;;;23.50;47.50;;;;;;5068755;28;20119;-64
2021/06/06 08:13:27;;;;;;;3.90;3.10;;;23.50;47.60;;;;;;5070054;28;20055;-64
2021/06/06 08:15:54;;;;;;;4.07;3.47;;;23.40;47.70;;;;;;5070669;28;20115;-63
2021/06/06 08:18:26;;;;;;;3.40;2.50;;;23.40;47.90;;;;;;5066616;28;20033;-64
2021/06/06 08:20:59;;;;;;;3.58;2.33;;;23.60;47.50;;;;;;5063012;28;20452;-63
2021/06/06 08:23:25;;;;;;;2.53;2.13;;;23.60;46.60;;;;;;5070145;28;20566;-63
2021/06/06 08:25:55;;;;;;;2.95;2.75;;;23.70;45.70;;;;;;5069409;28;20032;-64
2021/06/06 08:28:20;;;;;;;5.88;2.72;;;23.80;45.30;;;;;;5070534;28;20036;-63
2021/06/06 08:30:51;;;;;;;2.13;2.03;;;23.80;45.20;;;;;;5070021;28;20410;-63
2021/06/06 08:33:19;;;;;;;4.45;2.65;;;23.80;45.00;;;;;;5079698;28;20066;-63
2021/06/06 08:35:45;;;;;;;2.20;2.00;;;23.80;45.20;;;;;;5055335;28;20040;-64
2021/06/06 08:38:11;;;;;;;1.58;1.48;;;23.80;44.90;;;;;;5079941;28;20037;-64
2021/06/06 08:41:20;;;;;;;3.35;1.85;;;23.90;43.60;;;;;;5059442;28;20055;-64
2021/06/06 08:44:15;;;;;;;2.72;2.08;;;24.00;40.90;;;;;;4995397;28;20048;-63
2021/06/06 08:46:58;;;;;;;2.95;1.90;;;24.00;42.40;;;;;;5057143;28;20055;-65
2021/06/06 08:49:26;;;;;;;3.40;2.33;;;24.10;42.60;;;;;;5057219;28;20042;-64
2021/06/06 08:52:15;;;;;;;2.90;2.10;;;24.10;43.60;;;;;;5076195;28;20397;-63
2021/06/06 08:54:47;;;;;;;4.70;2.72;;;24.10;43.20;;;;;;5078341;28;20044;-63
2021/06/06 08:57:40;;;;;;;4.90;1.92;;;24.00;43.20;;;;;;5072793;28;20033;-63
2021/06/06 09:00:26;;;;;;;3.58;2.20;;;24.10;43.70;;;;;;5037306;28;20059;-63
2021/06/06 09:03:14;;;;;;;2.60;2.22;;;24.10;43.70;;;;;;5035900;28;20109;-64
2021/06/06 09:05:42;;;;;;;2.40;2.20;;;24.00;44.30;;;;;;5074174;28;20564;-64
2021/06/06 09:08:18;;;;;;;3.75;2.80;;;24.20;43.90;;;;;;5083416;28;20039;-63
2021/06/06 09:10:47;;;;;;;4.30;2.47;;;24.20;43.30;;;;;;5055229;28;20460;-63
2021/06/06 09:13:14;;;;;;;5.15;2.95;;;24.40;43.10;;;;;;5084253;28;20040;-63
2021/06/06 09:15:40;;;;;;;3.90;2.50;;;24.40;42.90;;;;;;5074786;28;20516;-64
2021/06/06 09:18:21;;;;;;;5.70;2.60;;;24.50;42.90;;;;;;5080569;28;20040;-63
2021/06/06 09:20:48;;;;;;;2.83;2.55;;;24.60;42.20;;;;;;5077744;28;20044;-65
2021/06/06 09:23:22;;;;;;;3.13;2.83;;;24.60;42.50;;;;;;5074540;28;20043;-63
2021/06/06 09:26:06;;;;;;;;;;;24.80;43.20;;;;;;5073857;28;20044;-63
2021/06/06 09:28:34;;;;;;;3.53;3.10;;;24.90;43.10;;;;;;5061833;28;20462;-63
2021/06/06 09:31:19;;;;;;;7.57;2.95;;;25.00;43.40;;;;;;5069390;28;20036;-63
2021/06/06 09:34:07;;;;;;;4.53;3.08;;;25.00;42.20;;;;;;5064698;28;20547;-63
2021/06/06 09:36:37;;;;;;;5.88;3.00;;;25.20;42.30;;;;;;5003469;28;20088;-64
2021/06/06 09:39:03;;;;;;;4.18;3.25;;;25.10;42.60;;;;;;5059758;28;20051;-62
2021/06/06 09:41:37;;;;;;;3.45;2.45;;;25.00;42.60;;;;;;5062814;28;20021;-63
2021/06/06 09:44:15;;;;;;;;;;;25.30;42.20;;;;;;5067939;28;20460;-64
2021/06/06 09:46:41;;;;;;;4.60;2.58;;;25.40;41.70;;;;;;5068239;28;19916;-63
2021/06/06 09:49:23;;;;;;;2.47;2.22;;;25.30;42.10;;;;;;5060956;28;20047;-64
2021/06/06 09:51:50;;;;;;;7.85;4.28;;;25.60;41.20;;;;;;5072537;28;20048;-63
2021/06/06 09:54:24;;;;;;;5.60;2.95;;;25.60;41.00;;;;;;5065662;28;20032;-63
2021/06/06 09:56:53;;;;;;;4.72;2.90;;;25.70;41.30;;;;;;5068243;28;20049;-63
2021/06/06 09:59:31;;;;;;;4.88;2.80;;;25.70;40.80;;;;;;5053857;28;21152;-63
2021/06/06 10:02:02;;;;;;;5.32;2.70;;;25.80;40.50;;;;;;5073207;28;20074;-63
2021/06/06 10:04:35;;;;;;;6.93;3.42;;;26.00;40.60;;;;;;5068715;28;20093;-64
2021/06/06 10:07:25;;;;;;;4.72;3.00;;;26.00;40.20;;;;;;5069888;28;20209;-64
2021/06/06 10:09:54;;;;;;;3.22;2.55;;;26.10;40.60;;;;;;5022920;28;20111;-64
2021/06/06 10:12:42;;;;;;;4.82;3.00;;;26.20;39.80;;;;;;5067277;28;20394;-64
2021/06/06 10:15:38;;;;;;;6.70;3.10;;;26.40;38.60;;;;;;5064739;28;20028;-65
2021/06/06 10:18:16;;;;;;;3.50;2.67;;;26.30;39.00;;;;;;5053651;28;20032;-65
2021/06/06 10:20:46;;;;;;;3.38;2.40;;;26.40;38.20;;;;;;5064181;28;20093;-65
2021/06/06 10:23:16;;;;;;;3.45;1.95;;;26.50;38.70;;;;;;5074607;28;20115;-65
2021/06/06 10:26:00;;;;;;;5.45;3.10;;;26.60;39.30;;;;;;5080249;28;20040;-64
2021/06/06 10:28:44;;;;;;;3.15;2.53;;;26.70;38.60;;;;;;5042824;28;20504;-65
2021/06/06 10:31:24;;;;;;;4.65;2.05;;;26.90;37.00;;;;;;5038811;28;20037;-64
2021/06/06 10:33:52;;;;;;;2.95;2.20;;;26.90;37.70;;;;;;5070252;28;20043;-64
2021/06/06 10:36:24;;;;;;;2.75;2.45;;;27.10;37.10;;;;;;5069401;28;20036;-64
2021/06/06 10:38:50;;;;;;;3.20;2.00;;;27.10;36.60;;;;;;5068220;28;20101;-63
2021/06/06 10:41:24;;;;;;;2.78;2.40;;;27.30;36.30;;;;;;5045570;28;20058;-60
2021/06/06 10:43:58;;;;;;;5.75;2.47;;;27.40;35.80;;;;;;5073673;28;20123;-63
2021/06/06 10:46:36;;;;;;;3.17;2.40;;;27.40;35.10;;;;;;5061130;28;20519;-64
2021/06/06 10:49:14;;;;;;;2.72;2.45;;;27.70;35.00;;;;;;5069953;28;20066;-63
2021/06/06 10:51:54;;;;;;;3.08;2.47;;;27.70;33.80;;;;;;5075032;28;20038;-64
2021/06/06 10:54:32;;;;;;;2.20;1.80;;;27.90;34.00;;;;;;5063757;28;20123;-63
2021/06/06 10:57:33;;;;;;;3.53;2.28;;;28.20;32.80;;;;;;5067852;28;20452;-63
2021/06/06 11:00:02;;;;;;;2.72;2.53;;;28.90;32.20;;;;;;5041447;28;20048;-63
2021/06/06 11:02:55;;;;;;;3.13;2.15;;;29.10;31.70;;;;;;5078426;28;20059;-63
2021/06/06 11:05:46;;;;;;;2.00;1.85;;;29.80;30.40;;;;;;5070370;28;20097;-63
2021/06/06 11:08:28;;;;;;;3.40;2.13;;;30.40;29.40;;;;;;5082712;28;20040;-64
2021/06/06 11:10:57;;;;;;;3.25;2.47;;;30.70;29.50;;;;;;5038833;28;20040;-64
2021/06/06 11:13:34;;;;;;;6.25;2.20;;;30.50;29.30;;;;;;5068991;28;20063;-65
2021/06/06 11:16:21;;;;;;;3.65;2.40;;;30.80;28.90;;;;;;5057853;28;20094;-65
2021/06/06 11:18:50;;;;;;;2.42;2.22;;;30.90;29.30;;;;;;5044815;28;20365;-64
2021/06/06 11:21:29;;;;;;;4.70;2.30;;;31.30;29.30;;;;;;5059881;28;20454;-60
2021/06/06 11:24:01;;;;;;;2.30;2.20;;;30.50;29.30;;;;;;5065395;28;20029;-64
2021/06/06 11:26:32;;;;;;;2.67;2.35;;;30.00;29.70;;;;;;5070282;28;20418;-64
2021/06/06 11:29:21;;;;;;;3.03;2.50;;;30.30;29.80;;;;;;5081799;28;20066;-64
2021/06/06 11:32:01;;;;;;;3.50;2.67;;;30.80;29.00;;;;;;5072914;28;20040;-64
2021/06/06 11:34:35;;;;;;;6.72;2.88;;;30.80;28.50;;;;;;5071123;28;20073;-64
2021/06/06 11:37:08;;;;;;;3.05;2.38;;;30.70;29.10;;;;;;5076155;28;20028;-64
2021/06/06 11:39:45;;;;;;;2.87;2.57;;;30.80;29.00;;;;;;5078941;28;20505;-64
2021/06/06 11:42:29;;;;;;;3.25;2.22;;;31.20;28.40;;;;;;5073409;28;20251;-64
2021/06/06 11:45:06;;;;;;;2.28;2.17;;;31.60;27.70;;;;;;5044417;28;20499;-64
2021/06/06 11:47:44;;;;;;;3.97;2.85;;;32.30;28.20;;;;;;5068688;28;20593;-64
2021/06/06 11:50:16;;;;;;;4.88;3.10;;;32.50;27.20;;;;;;5075933;28;20037;-64
2021/06/06 11:52:50;;;;;;;3.60;2.67;;;32.40;27.00;;;;;;5059853;28;20040;-64
2021/06/06 11:55:29;;;;;;;3.15;2.53;;;32.00;27.40;;;;;;5074504;28;20036;-64
2021/06/06 11:58:40;;;;;;;3.53;2.95;;;31.70;27.20;;;;;;5064495;28;20105;-65
2021/06/06 12:01:17;;;;;;;2.90;2.40;;;32.10;27.30;;;;;;5048540;28;20856;-65
2021/06/06 12:03:45;;;;;;;4.03;3.63;;;32.20;27.30;;;;;;5072951;28;20101;-65
2021/06/06 12:06:26;;;;;;;3.78;2.83;;;32.20;27.60;;;;;;5078042;28;20048;-65
2021/06/06 12:08:55;;;;;;;3.45;2.75;;;32.00;27.80;;;;;;5025571;28;20039;-64
2021/06/06 12:11:33;;;;;;;2.83;2.25;;;31.70;27.80;;;;;;5070500;28;20052;-65
2021/06/06 12:14:17;;;;;;;4.00;3.20;;;32.30;26.80;;;;;;5057669;28;20450;-65
2021/06/06 12:16:58;;;;;;;2.85;2.65;;;32.90;26.40;;;;;;5075778;28;20475;-65
2021/06/06 12:19:35;;;;;;;3.60;2.80;;;33.00;26.00;;;;;;5036638;28;20051;-65
2021/06/06 12:22:27;;;;;;;2.85;2.65;;;32.40;26.50;;;;;;5072438;28;20083;-64
2021/06/06 12:25:14;;;;;;;2.72;2.53;;;32.50;26.50;;;;;;5023330;28;20059;-64
2021/06/06 12:27:46;;;;;;;3.10;2.42;;;32.90;26.10;;;;;;5083295;28;20068;-64
2021/06/06 12:30:47;;;;;;;6.95;2.97;;;32.20;27.10;;;;;;5075158;28;20075;-65
2021/06/06 12:33:24;;;;;;;2.85;2.50;;;32.80;26.60;;;;;;4998793;28;20052;-65
2021/06/06 12:35:53;;;;;;;3.33;2.83;;;33.20;26.00;;;;;;5063835;28;20040;-64
2021/06/06 12:38:22;;;;;;;3.20;2.88;;;33.60;25.50;;;;;;5071031;28;20143;-64
2021/06/06 12:40:49;;;;;;;2.55;2.35;;;33.90;25.10;;;;;;5073272;28;20166;-64
2021/06/06 12:43:18;;;;;;;2.88;2.67;;;35.60;24.20;;;;;;5080555;28;20496;-65
2021/06/06 12:45:47;;;;;;;2.95;2.67;;;35.10;23.70;;;;;;5080719;28;20092;-65
2021/06/06 12:48:24;;;;;;;3.15;2.70;;;34.40;23.80;;;;;;5071196;27;20039;-64
2021/06/06 12:50:52;;;;;;;4.70;2.90;;;32.60;25.60;;;;;;5065053;28;20718;-64
2021/06/06 12:53:35;;;;;;;4.55;2.78;;;31.70;26.70;;;;;;5077091;28;20064;-63
2021/06/06 12:56:16;;;;;;;3.22;2.92;;;31.30;27.20;;;;;;5076463;28;20424;-65
2021/06/06 12:58:43;;;;;;;2.83;2.63;;;31.80;27.10;;;;;;5073030;28;20123;-64
2021/06/06 13:01:25;;;;;;;4.53;3.20;;;33.50;26.00;;;;;;5071688;28;20037;-65
2021/06/06 13:03:52;;;;;;;3.08;2.35;;;35.40;24.20;;;;;;5054939;28;20060;-64
2021/06/06 13:06:35;;;;;;;3.00;2.65;;;36.80;23.20;;;;;;5077205;28;20090;-64
2021/06/06 13:09:16;;;;;;;6.17;2.73;;;37.90;21.60;;;;;;5059531;28;20037;-65